Etusivu
METAR-TAF:

METAR-TAF

Lentoasemat :

Tacoma Narrows Airport

Tacoma, Washington, Yhdysvallat

Leveyspiiri: 47-16-03N, Pituuspiiri: 122-34-34W, korkeus merenpinnasta: 96 m

Tämänhetkinen sää

Tämä raportti tehtiin 54 minuuttia sitten, kello 00.53 UTC
Tuuli 4 kn lännestä
Lämpötila 3°C
Kosteus 93%
Ilmanpaine 1026 hPa
Näkyvyys: 6.4 km
Hajonneita pilviä 600 ft:n korkeudessa
utua

METAR: KTIW 230053Z 27004KT 4SM BR BKN006 03/02 A3029 RMK AO2 SLP262 T00330022

Aika: 17:47 (01:47 UTC)


TAF: puuttuu

Säähavainnot ja -ennusteet yli 4000 lentoasemalta (METAR- ja TAF-raportit).

Käytössä olevat sääasemat on merkitty karttaan keltaisilla ja punaisilla pisteillä.

Aseta hiiri pisteen päälle nähdäksesi sääaseman nimen.

Klikkaa sitten nähdäksesi säähavainnot ja -ennusteet.

Kartan vaihtaminen: klikkaa mustalla rastilla varustettuja vihreitä pisteitä, niin voit zoomata sisään; viivalla varustettua vihreää pistettä, niin voit zoomata ulos tai vihreitä nuolia, niin pääset viereisille kartoille.


METAR-TAF: